Time;durP1;ratioP1;P1;durP2;ratioP2;P2;SDS_P1;SDS_P2;PMS_P1;PMS_P2;Temp;Humidity;BMP_temperature;BMP_pressure;BME280_temperature;BME280_humidity;BME280_pressure;Samples;Min_cycle;Max_cycle;Signal;HPM_P1;HPM_P2
2021/12/25 00:02:10;;;;;;;3.03;2.83;;;;;;;;;;5096224;28;25239;-57
2021/12/25 00:04:35;;;;;;;3.50;3.20;;;;;;;;;;5098972;28;24458;-57
2021/12/25 00:07:01;;;;;;;3.28;2.70;;;;;;;;;;5101461;28;24414;-57
2021/12/25 00:09:27;;;;;;;3.25;3.05;;;;;;;;;;5103179;28;24495;-57
2021/12/25 00:11:52;;;;;;;3.60;3.30;;;;;;;;;;5100553;28;24528;-57
2021/12/25 00:14:17;;;;;;;4.20;3.90;;;;;;;;;;5100858;28;24950;-57
2021/12/25 00:16:43;;;;;;;3.70;3.50;;;;;;;;;;5097449;28;24443;-56
2021/12/25 00:19:08;;;;;;;3.53;3.30;;;;;;;;;;5100766;28;24421;-56
2021/12/25 00:21:33;;;;;;;3.10;2.90;;;;;;;;;;5103498;28;24382;-56
2021/12/25 00:23:58;;;;;;;3.70;3.40;;;;;;;;;;5104199;28;24428;-56
2021/12/25 00:26:41;;;;;;;4.07;3.77;;;;;;;;;;5105140;28;24589;-56
2021/12/25 00:29:32;;;;;;;3.80;3.60;;;;;;;;;;5101024;28;25170;-56
2021/12/25 00:34:23;;;;;;;4.47;4.07;;;;;;;;;;5106042;28;24862;-56
2021/12/25 00:36:49;;;;;;;5.15;4.75;;;;;;;;;;5105178;28;24955;-56
2021/12/25 00:39:14;;;;;;;5.20;4.80;;;;;;;;;;5105361;28;24392;-56
2021/12/25 00:41:40;;;;;;;4.93;4.53;;;;;;;;;;5100777;28;24834;-56
2021/12/25 00:44:05;;;;;;;5.20;4.80;;;;;;;;;;5100659;28;24417;-57
2021/12/25 00:46:30;;;;;;;4.50;4.20;;;;;;;;;;5103257;28;24463;-57
2021/12/25 00:48:55;;;;;;;5.10;4.70;;;;;;;;;;5106363;28;25069;-57
2021/12/25 00:51:20;;;;;;;4.50;4.20;;;;;;;;;;5104510;28;24417;-56
2021/12/25 00:53:45;;;;;;;4.75;4.35;;;;;;;;;;5101328;28;24811;-57
2021/12/25 00:56:11;;;;;;;4.90;4.47;;;;;;;;;;5103927;28;24406;-58
2021/12/25 00:58:36;;;;;;;4.90;4.50;;;;;;;;;;5104431;28;24516;-58
2021/12/25 01:01:01;;;;;;;4.80;4.50;;;;;;;;;;5105661;28;24528;-56
2021/12/25 01:03:26;;;;;;;5.10;4.70;;;;;;;;;;5104331;28;24448;-58
2021/12/25 01:05:51;;;;;;;4.50;4.20;;;;;;;;;;5105501;28;24506;-57
2021/12/25 01:08:16;;;;;;;4.00;3.70;;;;;;;;;;5100712;28;24398;-57
2021/12/25 01:10:42;;;;;;;4.20;3.97;;;;;;;;;;5102007;28;24444;-57
2021/12/25 01:13:15;;;;;;;3.93;3.67;;;;;;;;;;5105840;28;24394;-57
2021/12/25 01:15:45;;;;;;;4.07;3.77;;;;;;;;;;5103301;28;24528;-56
2021/12/25 01:21:13;;;;;;;4.10;3.80;;;;;;;;;;5101864;28;24439;-57
2021/12/25 01:26:46;;;;;;;4.35;4.05;;;;;;;;;;5089896;28;24966;-56
2021/12/25 01:29:22;;;;;;;3.90;3.60;;;;;;;;;;5104966;28;24390;-56
2021/12/25 01:34:53;;;;;;;3.70;3.50;;;;;;;;;;5099183;28;24412;-57
2021/12/25 01:37:19;;;;;;;3.90;3.60;;;;;;;;;;5102423;28;24425;-56
2021/12/25 01:47:49;;;;;;;2.20;2.10;;;;;;;;;;5099470;28;24474;-57
2021/12/25 01:50:20;;;;;;;2.40;2.30;;;;;;;;;;5103293;28;24474;-57
2021/12/25 01:52:45;;;;;;;2.20;2.10;;;;;;;;;;5103942;28;25073;-57
2021/12/25 01:55:13;;;;;;;2.23;2.13;;;;;;;;;;5103318;28;24414;-57
2021/12/25 01:57:40;;;;;;;2.00;1.90;;;;;;;;;;5098775;28;24955;-57
2021/12/25 02:00:07;;;;;;;1.80;1.80;;;;;;;;;;5101197;28;24459;-56
2021/12/25 02:02:33;;;;;;;2.20;2.10;;;;;;;;;;5102512;28;24476;-57
2021/12/25 02:04:58;;;;;;;2.37;2.27;;;;;;;;;;5104945;28;24442;-56
2021/12/25 02:07:23;;;;;;;2.43;2.33;;;;;;;;;;5104711;28;24447;-56
2021/12/25 02:09:48;;;;;;;2.40;2.30;;;;;;;;;;5101186;28;24843;-57
2021/12/25 02:12:15;;;;;;;2.30;2.20;;;;;;;;;;5098282;28;24486;-56
2021/12/25 02:14:42;;;;;;;2.50;2.40;;;;;;;;;;5100471;28;24775;-56
2021/12/25 02:17:18;;;;;;;2.50;2.30;;;;;;;;;;5105028;28;24439;-56
2021/12/25 02:19:55;;;;;;;2.40;2.30;;;;;;;;;;5104472;28;24402;-56
2021/12/25 02:22:26;;;;;;;2.70;2.60;;;;;;;;;;5100456;28;24520;-56
2021/12/25 02:24:51;;;;;;;2.20;2.10;;;;;;;;;;5087777;28;24428;-56
2021/12/25 02:27:16;;;;;;;2.15;2.05;;;;;;;;;;5103241;28;24429;-56
2021/12/25 02:29:41;;;;;;;2.08;1.98;;;;;;;;;;5102726;28;25001;-56
2021/12/25 02:32:07;;;;;;;1.92;1.83;;;;;;;;;;5099674;28;24775;-55
2021/12/25 02:34:32;;;;;;;1.77;1.70;;;;;;;;;;5098858;28;24434;-55
2021/12/25 02:36:57;;;;;;;1.40;1.40;;;;;;;;;;5102987;28;24804;-56
2021/12/25 02:39:22;;;;;;;1.50;1.40;;;;;;;;;;5102780;28;24898;-55
2021/12/25 02:41:48;;;;;;;1.77;1.70;;;;;;;;;;5104017;28;24444;-55
2021/12/25 02:44:13;;;;;;;1.83;1.70;;;;;;;;;;5102179;28;24463;-56
2021/12/25 02:46:38;;;;;;;1.70;1.60;;;;;;;;;;5098548;28;24416;-55
2021/12/25 02:49:07;;;;;;;1.70;1.60;;;;;;;;;;5104539;28;24508;-54
2021/12/25 02:51:32;;;;;;;1.90;1.50;;;;;;;;;;5101849;28;24489;-55
2021/12/25 02:53:57;;;;;;;1.50;1.40;;;;;;;;;;5103791;28;24508;-55
2021/12/25 02:56:22;;;;;;;1.08;1.08;;;;;;;;;;5104094;28;24402;-55
2021/12/25 02:58:48;;;;;;;1.63;1.20;;;;;;;;;;5098890;28;24437;-54
2021/12/25 03:01:14;;;;;;;1.00;1.00;;;;;;;;;;5098090;28;24452;-55
2021/12/25 03:03:40;;;;;;;1.08;1.08;;;;;;;;;;5101638;28;24408;-54
2021/12/25 03:06:07;;;;;;;1.30;1.20;;;;;;;;;;5103839;28;24485;-55
2021/12/25 03:08:33;;;;;;;1.17;0.80;;;;;;;;;;5102445;28;24464;-54
2021/12/25 03:10:59;;;;;;;1.10;0.80;;;;;;;;;;5103347;28;24397;-54
2021/12/25 03:13:36;;;;;;;1.90;1.00;;;;;;;;;;5099756;28;24452;-55
2021/12/25 03:16:04;;;;;;;1.90;1.10;;;;;;;;;;5098986;28;25076;-55
2021/12/25 03:18:32;;;;;;;1.50;1.07;;;;;;;;;;5102329;28;24404;-55
2021/12/25 03:21:02;;;;;;;1.05;1.00;;;;;;;;;;5104015;28;24393;-55
2021/12/25 03:23:28;;;;;;;1.50;0.90;;;;;;;;;;5101743;28;24425;-54
2021/12/25 03:25:54;;;;;;;1.10;1.00;;;;;;;;;;5099129;28;24421;-55
2021/12/25 03:28:22;;;;;;;0.88;0.88;;;;;;;;;;5100132;28;24809;-56
2021/12/25 03:30:48;;;;;;;2.10;1.00;;;;;;;;;;5103500;28;24840;-56
2021/12/25 03:33:15;;;;;;;1.30;1.20;;;;;;;;;;5103250;28;25019;-56
2021/12/25 03:35:40;;;;;;;1.80;1.15;;;;;;;;;;5098820;28;24826;-56
2021/12/25 03:38:07;;;;;;;1.23;1.23;;;;;;;;;;5098039;28;24958;-57
2021/12/25 03:40:32;;;;;;;1.63;1.40;;;;;;;;;;5099902;28;24471;-57
2021/12/25 03:42:57;;;;;;;1.40;1.30;;;;;;;;;;5102973;28;24425;-57
2021/12/25 03:45:23;;;;;;;1.40;1.30;;;;;;;;;;5103018;28;24461;-56
2021/12/25 03:47:51;;;;;;;1.60;1.50;;;;;;;;;;5101729;28;24494;-54
2021/12/25 03:58:35;;;;;;;1.77;1.67;;;;;;;;;;5101544;28;24425;-56
2021/12/25 04:01:11;;;;;;;1.80;1.70;;;;;;;;;;5110303;28;24382;-56
2021/12/25 04:03:47;;;;;;;2.03;1.92;;;;;;;;;;5108234;28;24806;-56
2021/12/25 04:06:12;;;;;;;2.30;2.20;;;;;;;;;;5103142;28;24413;-55
2021/12/25 04:08:46;;;;;;;2.50;2.30;;;;;;;;;;5106313;28;24402;-56
2021/12/25 04:11:24;;;;;;;2.30;2.10;;;;;;;;;;5109490;28;24466;-56
2021/12/25 04:13:49;;;;;;;2.80;2.60;;;;;;;;;;5110353;28;24417;-56
2021/12/25 04:16:15;;;;;;;2.60;2.50;;;;;;;;;;5109859;28;24409;-56
2021/12/25 04:18:40;;;;;;;2.53;2.40;;;;;;;;;;5107196;28;24425;-55
2021/12/25 04:21:05;;;;;;;2.80;2.40;;;;;;;;;;5105507;28;24463;-58
2021/12/25 04:23:30;;;;;;;2.88;2.67;;;;;;;;;;5106316;28;24467;-56
2021/12/25 04:25:57;;;;;;;3.00;2.70;;;;;;;;;;5107448;28;24517;-56
2021/12/25 04:28:36;;;;;;;3.90;3.08;;;;;;;;;;5108918;28;25271;-56
2021/12/25 04:31:29;;;;;;;3.40;3.10;;;;;;;;;;5106983;28;24475;-56
2021/12/25 05:04:01;;;;;;;5.57;4.60;;;;;;;;;;5089442;28;24396;-56
2021/12/25 05:06:27;;;;;;;5.32;4.82;;;;;;;;;;5102099;28;25049;-56
2021/12/25 05:08:53;;;;;;;6.63;4.90;;;;;;;;;;5098623;28;24410;-56
2021/12/25 05:11:18;;;;;;;5.00;4.60;;;;;;;;;;5098834;28;24436;-56
2021/12/25 05:13:45;;;;;;;5.53;5.03;;;;;;;;;;5102332;28;24457;-56
2021/12/25 05:16:11;;;;;;;4.82;4.43;;;;;;;;;;5102534;28;24776;-55
2021/12/25 05:18:36;;;;;;;5.57;5.07;;;;;;;;;;5104077;28;24420;-55
2021/12/25 05:21:01;;;;;;;5.13;4.63;;;;;;;;;;5105765;28;24962;-55
2021/12/25 05:23:27;;;;;;;5.32;4.82;;;;;;;;;;5101270;28;24453;-56
2021/12/25 05:25:52;;;;;;;5.63;5.00;;;;;;;;;;5102274;28;24959;-55
2021/12/25 05:28:24;;;;;;;5.10;4.60;;;;;;;;;;5103525;28;24437;-55
2021/12/25 05:30:50;;;;;;;5.65;4.90;;;;;;;;;;5104807;28;24484;-56
2021/12/25 05:33:15;;;;;;;4.80;4.40;;;;;;;;;;5104908;28;25337;-56
2021/12/25 05:35:40;;;;;;;4.63;4.23;;;;;;;;;;5104236;28;24488;-56
2021/12/25 05:38:12;;;;;;;3.77;3.57;;;;;;;;;;5103623;28;24448;-55
2021/12/25 05:40:38;;;;;;;3.90;3.60;;;;;;;;;;5098586;28;24405;-56
2021/12/25 05:43:03;;;;;;;3.88;3.58;;;;;;;;;;5101102;28;24759;-56
2021/12/25 05:45:28;;;;;;;5.03;3.60;;;;;;;;;;5103377;28;24418;-56
2021/12/25 05:47:53;;;;;;;4.37;3.77;;;;;;;;;;5105698;28;24501;-55
2021/12/25 05:50:18;;;;;;;4.03;3.60;;;;;;;;;;5104129;28;24409;-55
2021/12/25 05:52:43;;;;;;;3.83;3.60;;;;;;;;;;5103176;28;24646;-55
2021/12/25 05:55:09;;;;;;;3.20;3.00;;;;;;;;;;5099873;28;24967;-56
2021/12/25 05:57:34;;;;;;;4.03;3.70;;;;;;;;;;5101053;28;24566;-56
2021/12/25 05:59:59;;;;;;;3.90;3.60;;;;;;;;;;5105345;28;24402;-56
2021/12/25 06:02:24;;;;;;;3.77;3.47;;;;;;;;;;5103669;28;24434;-56
2021/12/25 06:04:49;;;;;;;4.20;3.80;;;;;;;;;;5103319;28;24460;-57
2021/12/25 06:07:14;;;;;;;3.60;3.40;;;;;;;;;;5099592;28;24968;-56
2021/12/25 06:09:40;;;;;;;3.80;3.60;;;;;;;;;;5101134;28;24978;-57
2021/12/25 06:12:07;;;;;;;3.75;3.45;;;;;;;;;;5103273;28;24417;-56
2021/12/25 06:14:33;;;;;;;4.20;3.80;;;;;;;;;;5104307;28;24420;-56
2021/12/25 06:16:58;;;;;;;3.70;3.50;;;;;;;;;;5099479;28;25471;-57
2021/12/25 06:19:23;;;;;;;4.20;3.90;;;;;;;;;;5100532;28;24965;-56
2021/12/25 06:21:48;;;;;;;3.95;3.55;;;;;;;;;;5101976;28;24459;-56
2021/12/25 06:24:15;;;;;;;4.00;3.70;;;;;;;;;;5104239;28;24437;-57
2021/12/25 06:26:40;;;;;;;4.70;4.30;;;;;;;;;;5102496;28;24413;-56
2021/12/25 06:29:06;;;;;;;3.90;3.60;;;;;;;;;;5100801;28;24503;-56
2021/12/25 06:31:31;;;;;;;4.40;4.00;;;;;;;;;;5098627;28;24428;-57
2021/12/25 06:33:58;;;;;;;4.10;3.80;;;;;;;;;;5104013;28;24459;-56
2021/12/25 06:36:23;;;;;;;4.20;3.90;;;;;;;;;;5099132;28;25080;-56
2021/12/25 06:38:48;;;;;;;3.97;3.60;;;;;;;;;;5097388;28;24422;-56
2021/12/25 06:41:14;;;;;;;4.43;4.13;;;;;;;;;;5097576;28;24972;-56
2021/12/25 06:43:40;;;;;;;4.88;4.47;;;;;;;;;;5102161;28;24896;-56
2021/12/25 06:46:05;;;;;;;4.20;3.90;;;;;;;;;;5103461;28;24540;-56
2021/12/25 06:48:31;;;;;;;4.67;4.27;;;;;;;;;;5102075;28;24509;-57
2021/12/25 06:50:56;;;;;;;4.03;3.73;;;;;;;;;;5100324;28;24444;-56
2021/12/25 06:53:21;;;;;;;3.70;3.40;;;;;;;;;;5102016;28;24447;-56
2021/12/25 06:55:47;;;;;;;4.82;4.43;;;;;;;;;;5103370;28;24778;-56
2021/12/25 06:58:12;;;;;;;4.97;4.47;;;;;;;;;;5097162;28;24513;-57
2021/12/25 07:00:37;;;;;;;5.17;4.37;;;;;;;;;;5102688;28;24428;-57
2021/12/25 07:03:02;;;;;;;4.45;4.05;;;;;;;;;;5098024;28;24453;-54
2021/12/25 07:05:28;;;;;;;4.40;4.00;;;;;;;;;;5098189;28;24891;-55
2021/12/25 07:07:53;;;;;;;3.43;3.23;;;;;;;;;;5098033;28;24418;-54
2021/12/25 07:10:18;;;;;;;4.50;4.10;;;;;;;;;;5100657;28;24966;-55
2021/12/25 07:12:46;;;;;;;4.10;3.60;;;;;;;;;;5097448;28;25265;-55
2021/12/25 07:15:12;;;;;;;3.92;3.58;;;;;;;;;;5088831;28;24471;-56
2021/12/25 07:17:37;;;;;;;3.77;3.47;;;;;;;;;;5098643;28;24429;-55
2021/12/25 07:20:03;;;;;;;3.00;2.80;;;;;;;;;;5100266;28;24414;-55
2021/12/25 07:22:28;;;;;;;2.90;2.70;;;;;;;;;;5094943;28;24424;-56
2021/12/25 07:24:53;;;;;;;3.50;2.80;;;;;;;;;;5093056;28;24410;-55
2021/12/25 07:27:18;;;;;;;3.57;2.80;;;;;;;;;;5096908;28;24779;-55
2021/12/25 07:29:43;;;;;;;2.30;2.10;;;;;;;;;;5098204;28;24838;-55
2021/12/25 07:32:09;;;;;;;2.90;2.05;;;;;;;;;;5097125;28;24724;-56
2021/12/25 07:34:34;;;;;;;3.50;2.20;;;;;;;;;;5096709;28;24544;-56
2021/12/25 07:37:00;;;;;;;2.20;2.10;;;;;;;;;;5098649;28;24406;-56
2021/12/25 07:39:26;;;;;;;2.60;2.03;;;;;;;;;;5097511;28;24754;-55
2021/12/25 07:41:51;;;;;;;2.30;1.60;;;;;;;;;;5102546;28;24777;-56
2021/12/25 07:44:16;;;;;;;1.75;1.65;;;;;;;;;;5100307;28;24419;-56
2021/12/25 07:46:43;;;;;;;1.86;1.70;;;;;;;;;;5098206;28;24409;-56
2021/12/25 07:49:14;;;;;;;1.63;1.50;;;;;;;;;;5097660;28;24410;-55
2021/12/25 07:51:40;;;;;;;2.30;1.70;;;;;;;;;;5103023;28;24966;-55
2021/12/25 07:54:05;;;;;;;2.40;1.60;;;;;;;;;;5099722;28;24423;-55
2021/12/25 07:56:30;;;;;;;1.90;1.80;;;;;;;;;;5099712;28;24414;-55
2021/12/25 07:58:55;;;;;;;1.33;1.30;;;;;;;;;;5096481;28;24534;-55
2021/12/25 08:01:20;;;;;;;1.50;1.40;;;;;;;;;;5093594;28;24713;-55
2021/12/25 08:03:46;;;;;;;1.67;1.57;;;;;;;;;;5096657;28;24516;-55
2021/12/25 08:06:11;;;;;;;1.60;1.50;;;;;;;;;;5099089;28;24432;-56
2021/12/25 08:08:36;;;;;;;1.30;1.30;;;;;;;;;;5094164;28;24429;-55
2021/12/25 08:11:01;;;;;;;1.60;1.38;;;;;;;;;;5096086;28;24977;-56
2021/12/25 08:13:26;;;;;;;1.63;1.52;;;;;;;;;;5089343;28;24436;-55
2021/12/25 08:15:51;;;;;;;2.20;1.30;;;;;;;;;;5101152;28;24825;-55
2021/12/25 08:18:17;;;;;;;1.53;1.37;;;;;;;;;;5098994;28;24521;-55
2021/12/25 08:20:42;;;;;;;1.30;1.30;;;;;;;;;;5098316;28;24417;-56
2021/12/25 08:23:07;;;;;;;1.87;1.33;;;;;;;;;;5097751;28;24413;-55
2021/12/25 08:25:33;;;;;;;1.70;1.43;;;;;;;;;;5096592;28;24442;-56
2021/12/25 08:27:58;;;;;;;2.07;1.60;;;;;;;;;;5099135;28;24472;-56
2021/12/25 08:30:26;;;;;;;1.27;1.17;;;;;;;;;;5101950;28;25076;-55
2021/12/25 08:32:55;;;;;;;1.60;1.50;;;;;;;;;;5088399;28;24429;-56
2021/12/25 08:35:20;;;;;;;1.50;1.40;;;;;;;;;;5076344;28;24470;-57
2021/12/25 08:37:46;;;;;;;1.80;1.70;;;;;;;;;;5099006;28;24779;-56
2021/12/25 08:40:11;;;;;;;1.40;1.30;;;;;;;;;;5093190;28;24982;-56
2021/12/25 08:42:37;;;;;;;2.20;1.70;;;;;;;;;;5087607;28;24424;-55
2021/12/25 08:47:29;;;;;;;2.00;1.50;;;;;;;;;;5096154;28;24791;-56
2021/12/25 08:49:55;;;;;;;1.60;1.50;;;;;;;;;;5099986;28;24720;-56
2021/12/25 08:52:21;;;;;;;1.90;1.50;;;;;;;;;;5101346;28;24422;-56
2021/12/25 08:54:48;;;;;;;1.60;1.50;;;;;;;;;;5095093;28;24414;-56
2021/12/25 08:57:14;;;;;;;2.88;1.65;;;;;;;;;;5099169;28;24471;-56
2021/12/25 08:59:39;;;;;;;1.73;1.63;;;;;;;;;;5098789;28;24410;-56
2021/12/25 09:02:08;;;;;;;2.50;2.10;;;;;;;;;;5105058;28;24429;-56
2021/12/25 09:04:34;;;;;;;2.00;1.90;;;;;;;;;;5090840;28;24406;-56
2021/12/25 09:07:00;;;;;;;3.92;2.08;;;;;;;;;;5105238;28;24419;-55
2021/12/25 09:09:25;;;;;;;2.23;1.80;;;;;;;;;;5101204;28;24414;-55
2021/12/25 09:11:50;;;;;;;1.90;1.80;;;;;;;;;;5099810;28;24417;-55
2021/12/25 09:14:15;;;;;;;2.00;1.60;;;;;;;;;;5102143;28;24413;-55
2021/12/25 09:16:40;;;;;;;2.20;2.00;;;;;;;;;;5103108;28;24992;-54
2021/12/25 09:19:06;;;;;;;2.50;1.75;;;;;;;;;;5104588;28;24440;-51
2021/12/25 09:21:31;;;;;;;2.80;2.00;;;;;;;;;;5101428;28;24426;-51
2021/12/25 09:23:56;;;;;;;2.20;2.00;;;;;;;;;;5090352;28;24428;-50
2021/12/25 09:26:21;;;;;;;2.87;1.80;;;;;;;;;;5089243;28;24652;-50
2021/12/25 09:28:47;;;;;;;2.53;1.80;;;;;;;;;;5103373;28;24767;-55
2021/12/25 09:31:12;;;;;;;2.73;2.10;;;;;;;;;;5104547;28;24406;-54
2021/12/25 09:33:38;;;;;;;1.98;1.63;;;;;;;;;;5094991;28;24473;-55
2021/12/25 09:36:03;;;;;;;2.35;1.90;;;;;;;;;;5102056;28;24958;-55
2021/12/25 09:38:29;;;;;;;1.60;1.50;;;;;;;;;;5100378;28;24448;-55
2021/12/25 09:40:55;;;;;;;2.60;1.70;;;;;;;;;;5101741;28;24525;-55
2021/12/25 09:43:20;;;;;;;2.10;1.90;;;;;;;;;;5084839;28;24418;-55
2021/12/25 09:45:45;;;;;;;2.20;2.00;;;;;;;;;;5101543;28;24418;-55
2021/12/25 09:48:11;;;;;;;2.05;1.70;;;;;;;;;;5101146;28;24410;-56
2021/12/25 09:50:36;;;;;;;1.60;1.50;;;;;;;;;;5100016;28;24478;-55
2021/12/25 09:53:08;;;;;;;1.80;1.70;;;;;;;;;;5104066;28;24418;-55
2021/12/25 09:55:34;;;;;;;1.90;1.70;;;;;;;;;;5100854;28;24890;-54
2021/12/25 09:57:59;;;;;;;2.23;1.80;;;;;;;;;;5102101;28;24506;-54
2021/12/25 10:00:24;;;;;;;2.47;1.90;;;;;;;;;;5100096;28;24409;-54
2021/12/25 10:02:51;;;;;;;1.90;1.70;;;;;;;;;;5101781;28;24476;-55
2021/12/25 10:05:36;;;;;;;1.95;1.80;;;;;;;;;;5101919;28;24528;-55
2021/12/25 10:08:03;;;;;;;1.60;1.50;;;;;;;;;;5099248;28;24421;-55
2021/12/25 10:10:40;;;;;;;1.90;1.80;;;;;;;;;;5095365;28;24424;-55
2021/12/25 10:13:16;;;;;;;1.80;1.70;;;;;;;;;;5091654;28;24532;-55
2021/12/25 10:15:41;;;;;;;1.67;1.58;;;;;;;;;;5092559;28;24451;-55
2021/12/25 10:18:06;;;;;;;2.40;1.80;;;;;;;;;;5085481;28;24410;-57
2021/12/25 10:20:32;;;;;;;1.90;1.60;;;;;;;;;;5101877;28;24698;-55
2021/12/25 10:23:12;;;;;;;2.97;2.17;;;;;;;;;;5101093;28;24418;-55
2021/12/25 10:25:48;;;;;;;3.47;2.10;;;;;;;;;;5095154;28;24485;-55
2021/12/25 10:28:14;;;;;;;2.95;2.05;;;;;;;;;;5094276;28;24855;-55
2021/12/25 10:30:44;;;;;;;1.90;1.80;;;;;;;;;;5093336;28;24420;-55
2021/12/25 10:33:28;;;;;;;2.20;2.10;;;;;;;;;;5100285;28;24433;-56
2021/12/25 10:35:54;;;;;;;1.90;1.80;;;;;;;;;;5100455;28;24453;-55
2021/12/25 10:38:21;;;;;;;1.55;1.45;;;;;;;;;;5096272;28;24844;-56
2021/12/25 10:40:47;;;;;;;2.30;1.60;;;;;;;;;;5101321;28;24413;-55
2021/12/25 10:43:20;;;;;;;2.80;1.80;;;;;;;;;;5102194;28;24756;-55
2021/12/25 10:45:58;;;;;;;1.90;1.80;;;;;;;;;;5097788;28;24436;-55
2021/12/25 10:48:30;;;;;;;1.80;1.70;;;;;;;;;;5094401;28;24528;-54
2021/12/25 10:50:56;;;;;;;1.73;1.63;;;;;;;;;;5099333;28;24405;-55
2021/12/25 10:53:30;;;;;;;1.90;1.80;;;;;;;;;;5103138;28;25018;-55
2021/12/25 10:56:24;;;;;;;2.15;2.00;;;;;;;;;;5102996;28;24412;-56
2021/12/25 10:58:50;;;;;;;2.42;2.22;;;;;;;;;;5082069;28;24432;-55
2021/12/25 11:01:15;;;;;;;2.50;2.15;;;;;;;;;;5102477;28;24504;-55
2021/12/25 11:03:42;;;;;;;2.58;2.30;;;;;;;;;;5095936;28;24412;-55
2021/12/25 11:06:08;;;;;;;2.47;2.28;;;;;;;;;;5101641;28;24466;-55
2021/12/25 11:08:33;;;;;;;2.53;2.33;;;;;;;;;;5102432;28;24464;-55
2021/12/25 11:11:10;;;;;;;2.65;2.45;;;;;;;;;;5100694;28;24963;-55
2021/12/25 11:13:38;;;;;;;2.40;2.30;;;;;;;;;;5101192;28;24439;-55
2021/12/25 11:16:15;;;;;;;3.28;2.97;;;;;;;;;;5092249;28;24412;-55
2021/12/25 11:18:50;;;;;;;3.10;2.90;;;;;;;;;;5100149;28;24409;-55
2021/12/25 11:21:16;;;;;;;3.17;2.80;;;;;;;;;;5102388;28;24505;-55
2021/12/25 11:23:41;;;;;;;2.90;2.70;;;;;;;;;;5099922;28;24543;-54
2021/12/25 11:26:06;;;;;;;4.32;3.92;;;;;;;;;;5092547;28;24962;-55
2021/12/25 11:28:32;;;;;;;3.40;3.10;;;;;;;;;;5097982;28;24425;-54
2021/12/25 11:30:57;;;;;;;3.70;3.40;;;;;;;;;;5098376;28;24417;-55
2021/12/25 11:33:22;;;;;;;3.40;3.10;;;;;;;;;;5102579;28;24421;-55
2021/12/25 11:35:47;;;;;;;3.37;3.00;;;;;;;;;;5100979;28;24413;-55
2021/12/25 11:38:13;;;;;;;3.43;3.17;;;;;;;;;;5102631;28;24417;-55
2021/12/25 11:40:43;;;;;;;3.50;3.20;;;;;;;;;;5100671;28;24798;-55
2021/12/25 11:43:08;;;;;;;3.20;3.00;;;;;;;;;;5099033;28;24417;-54
2021/12/25 11:45:39;;;;;;;3.60;3.20;;;;;;;;;;5098754;28;25391;-54
2021/12/25 11:48:15;;;;;;;3.50;3.20;;;;;;;;;;5100837;28;24414;-55
2021/12/25 11:50:42;;;;;;;3.88;3.58;;;;;;;;;;5100259;28;24406;-56
2021/12/25 11:58:20;;;;;;;4.45;2.85;;;;;;;;;;5101015;28;24432;-55
2021/12/25 12:00:47;;;;;;;3.60;2.70;;;;;;;;;;5096666;28;25002;-55
2021/12/25 12:03:32;;;;;;;3.10;2.70;;;;;;;;;;5100388;28;24437;-55
2021/12/25 12:05:57;;;;;;;4.38;3.13;;;;;;;;;;5096182;28;24413;-54
2021/12/25 12:08:23;;;;;;;3.30;3.00;;;;;;;;;;5102084;28;24455;-55
2021/12/25 12:11:00;;;;;;;2.70;2.50;;;;;;;;;;5098172;28;24440;-55
2021/12/25 12:13:30;;;;;;;2.90;2.50;;;;;;;;;;5099113;28;24424;-55
2021/12/25 12:15:57;;;;;;;2.97;2.75;;;;;;;;;;5102440;28;24421;-55
2021/12/25 12:18:31;;;;;;;3.20;2.70;;;;;;;;;;5102270;28;24790;-57
2021/12/25 12:21:04;;;;;;;2.63;2.42;;;;;;;;;;5101326;28;24410;-56
2021/12/25 12:23:42;;;;;;;3.03;2.72;;;;;;;;;;5102452;28;25281;-54
2021/12/25 12:26:13;;;;;;;2.80;2.60;;;;;;;;;;5106609;28;25003;-55
2021/12/25 12:28:49;;;;;;;2.77;2.57;;;;;;;;;;5106505;28;24467;-55
2021/12/25 12:31:47;;;;;;;2.90;2.70;;;;;;;;;;5102511;28;24502;-55
2021/12/25 12:34:31;;;;;;;4.15;2.95;;;;;;;;;;5063479;28;24526;-56
2021/12/25 12:37:14;;;;;;;3.15;2.85;;;;;;;;;;5101593;28;24420;-55
2021/12/25 12:39:43;;;;;;;3.30;2.80;;;;;;;;;;5102685;28;24830;-55
2021/12/25 12:42:12;;;;;;;4.40;4.00;;;;;;;;;;5100443;28;24467;-55
2021/12/25 12:44:37;;;;;;;4.40;3.70;;;;;;;;;;5105367;28;24457;-55
2021/12/25 12:47:05;;;;;;;3.33;3.03;;;;;;;;;;5105013;28;24449;-55
2021/12/25 12:49:45;;;;;;;4.05;3.65;;;;;;;;;;5104110;28;24509;-55
2021/12/25 12:52:21;;;;;;;3.10;2.90;;;;;;;;;;5098822;28;24421;-55
2021/12/25 12:54:51;;;;;;;2.90;2.60;;;;;;;;;;5099100;28;24428;-55
2021/12/25 12:57:35;;;;;;;3.92;2.80;;;;;;;;;;5104797;28;24405;-56
2021/12/25 13:00:06;;;;;;;2.70;2.50;;;;;;;;;;5101267;28;24982;-55
2021/12/25 13:02:38;;;;;;;2.90;2.65;;;;;;;;;;5101555;28;24991;-56
2021/12/25 13:05:03;;;;;;;3.80;3.03;;;;;;;;;;5095671;28;24425;-55
2021/12/25 13:07:30;;;;;;;2.70;2.50;;;;;;;;;;5101907;28;24424;-55
2021/12/25 13:10:04;;;;;;;3.17;2.87;;;;;;;;;;5104548;28;24868;-55
2021/12/25 13:12:38;;;;;;;3.38;3.08;;;;;;;;;;5089574;28;24520;-54
2021/12/25 13:15:10;;;;;;;2.80;2.60;;;;;;;;;;5101439;28;25073;-55
2021/12/25 13:17:36;;;;;;;3.10;2.80;;;;;;;;;;5104985;28;25034;-55
2021/12/25 13:20:02;;;;;;;3.10;2.90;;;;;;;;;;5103748;28;24505;-56
2021/12/25 13:22:27;;;;;;;3.60;3.23;;;;;;;;;;5102780;28;25026;-56
2021/12/25 13:25:02;;;;;;;3.50;3.03;;;;;;;;;;5103446;28;24416;-56
2021/12/25 13:27:27;;;;;;;3.38;2.90;;;;;;;;;;5106210;28;24491;-55
2021/12/25 13:29:53;;;;;;;3.63;3.20;;;;;;;;;;5102336;28;24978;-56
2021/12/25 13:32:25;;;;;;;4.03;3.00;;;;;;;;;;5102829;27;24430;-56
2021/12/25 13:34:50;;;;;;;4.00;3.60;;;;;;;;;;5100678;28;24401;-56
2021/12/25 13:37:17;;;;;;;5.22;4.32;;;;;;;;;;5105059;28;24852;-56
2021/12/25 13:39:42;;;;;;;6.15;4.75;;;;;;;;;;5102894;28;24406;-56
2021/12/25 13:42:09;;;;;;;4.40;4.00;;;;;;;;;;5103365;28;24452;-56
2021/12/25 13:44:35;;;;;;;3.90;3.60;;;;;;;;;;5086115;28;24479;-56
2021/12/25 13:47:04;;;;;;;3.85;3.40;;;;;;;;;;5100097;28;24409;-56
2021/12/25 13:49:31;;;;;;;3.80;3.50;;;;;;;;;;5103319;28;24413;-55
2021/12/25 13:51:58;;;;;;;4.82;3.50;;;;;;;;;;5104537;28;24429;-56
2021/12/25 13:54:23;;;;;;;3.83;3.53;;;;;;;;;;5104827;27;24470;-55
2021/12/25 13:56:50;;;;;;;4.50;3.75;;;;;;;;;;5102583;28;24406;-56
2021/12/25 13:59:15;;;;;;;3.83;3.42;;;;;;;;;;5099354;28;24420;-55
2021/12/25 14:01:40;;;;;;;4.30;3.90;;;;;;;;;;5102514;28;24434;-55
2021/12/25 14:04:06;;;;;;;5.57;4.90;;;;;;;;;;5103185;28;24946;-55
2021/12/25 14:06:31;;;;;;;3.92;3.50;;;;;;;;;;5101978;28;24421;-56
2021/12/25 14:08:57;;;;;;;4.03;3.40;;;;;;;;;;5104875;28;24410;-56
2021/12/25 14:11:22;;;;;;;4.63;3.20;;;;;;;;;;5102897;28;24494;-55
2021/12/25 14:13:47;;;;;;;5.10;3.40;;;;;;;;;;5102645;28;24416;-56
2021/12/25 14:16:12;;;;;;;5.40;3.20;;;;;;;;;;5104214;28;24414;-56
2021/12/25 14:18:38;;;;;;;3.50;3.20;;;;;;;;;;5102598;28;24554;-56
2021/12/25 14:21:13;;;;;;;3.63;3.30;;;;;;;;;;5102494;28;24417;-56
2021/12/25 14:23:39;;;;;;;3.85;3.10;;;;;;;;;;5100411;28;24425;-56
2021/12/25 14:26:04;;;;;;;3.30;3.00;;;;;;;;;;5103434;28;24418;-56
2021/12/25 14:28:32;;;;;;;3.80;3.30;;;;;;;;;;5101760;28;25217;-55
2021/12/25 14:31:06;;;;;;;3.40;3.10;;;;;;;;;;5103545;28;24409;-56
2021/12/25 14:33:40;;;;;;;3.90;3.30;;;;;;;;;;5102247;28;24529;-54
2021/12/25 14:36:09;;;;;;;3.50;3.20;;;;;;;;;;5099992;28;25205;-55
2021/12/25 14:38:36;;;;;;;3.45;3.15;;;;;;;;;;5086179;28;24465;-56
2021/12/25 14:41:01;;;;;;;4.25;3.80;;;;;;;;;;5097307;28;25151;-55
2021/12/25 14:43:28;;;;;;;3.80;3.50;;;;;;;;;;5114947;27;24580;-56
2021/12/25 14:45:54;;;;;;;4.13;3.83;;;;;;;;;;5104277;27;24506;-56
2021/12/25 14:48:30;;;;;;;5.00;3.80;;;;;;;;;;5096979;28;24505;-55
2021/12/25 14:50:59;;;;;;;7.00;5.90;;;;;;;;;;5086364;28;24987;-56
2021/12/25 14:53:25;;;;;;;5.90;5.15;;;;;;;;;;5102723;28;24439;-55
2021/12/25 14:55:52;;;;;;;10.90;7.28;;;;;;;;;;5100881;28;24414;-55
2021/12/25 14:58:19;;;;;;;5.82;4.93;;;;;;;;;;5100679;28;24821;-56
2021/12/25 15:00:46;;;;;;;4.30;4.00;;;;;;;;;;5094475;28;24398;-55
2021/12/25 15:03:29;;;;;;;3.83;3.50;;;;;;;;;;5103288;28;24499;-56
2021/12/25 15:05:55;;;;;;;4.20;3.80;;;;;;;;;;5099792;28;24459;-56
2021/12/25 15:08:28;;;;;;;5.80;4.40;;;;;;;;;;5100384;28;24414;-55
2021/12/25 15:10:54;;;;;;;4.88;4.10;;;;;;;;;;5097775;28;24817;-55
2021/12/25 15:13:20;;;;;;;4.63;4.00;;;;;;;;;;5101083;28;24490;-55
2021/12/25 15:15:50;;;;;;;4.28;3.88;;;;;;;;;;5101302;28;25379;-55
2021/12/25 15:18:26;;;;;;;4.38;3.97;;;;;;;;;;5102876;28;24500;-55
2021/12/25 15:21:08;;;;;;;4.28;3.90;;;;;;;;;;5099541;28;24923;-55
2021/12/25 15:23:34;;;;;;;5.45;4.15;;;;;;;;;;5099875;28;24397;-55
2021/12/25 15:26:06;;;;;;;4.60;4.20;;;;;;;;;;5102131;28;26046;-55
2021/12/25 15:28:31;;;;;;;4.57;4.10;;;;;;;;;;5098697;28;24406;-55
2021/12/25 15:30:56;;;;;;;4.28;3.92;;;;;;;;;;5099577;28;24424;-56
2021/12/25 15:33:24;;;;;;;5.22;4.18;;;;;;;;;;5097381;28;24471;-57
2021/12/25 15:35:50;;;;;;;4.93;4.00;;;;;;;;;;5095260;28;24853;-57
2021/12/25 15:38:29;;;;;;;4.13;3.83;;;;;;;;;;5102994;27;24517;-55
2021/12/25 15:40:54;;;;;;;4.50;4.10;;;;;;;;;;5100536;28;24516;-55
2021/12/25 15:43:20;;;;;;;4.30;3.90;;;;;;;;;;5098379;28;24634;-56
2021/12/25 15:45:45;;;;;;;4.50;4.10;;;;;;;;;;5095962;28;24498;-56
2021/12/25 15:48:10;;;;;;;4.18;3.83;;;;;;;;;;5101367;28;24414;-56
2021/12/25 15:50:36;;;;;;;4.00;3.60;;;;;;;;;;5091285;28;24433;-56
2021/12/25 15:53:02;;;;;;;4.30;4.00;;;;;;;;;;5099479;28;24873;-56